Time;durP1;ratioP1;P1;durP2;ratioP2;P2;SDS_P1;SDS_P2;PMS_P1;PMS_P2;Temp;Humidity;BMP_temperature;BMP_pressure;BME280_temperature;BME280_humidity;BME280_pressure;Samples;Min_cycle;Max_cycle;Signal;HPM_P1;HPM_P2
2022/08/01 00:01:08;;;;;;;14.80;13.40;;;;;;;14.61;100.00;98729.94;104964;1274;62177;-69
2022/08/01 00:03:34;;;;;;;15.30;13.90;;;;;;;14.59;100.00;98729.79;104977;1274;62599;-69
2022/08/01 00:06:00;;;;;;;14.20;13.00;;;;;;;14.56;100.00;98728.76;104960;1274;62543;-69
2022/08/01 00:08:26;;;;;;;14.90;13.40;;;;;;;14.53;100.00;98728.67;104706;1274;62263;-69
2022/08/01 00:10:52;;;;;;;14.90;13.60;;;;;;;14.50;100.00;98724.77;104929;1274;77038;-69
2022/08/01 00:13:18;;;;;;;15.40;14.00;;;;;;;14.47;100.00;98723.75;104759;1274;62111;-69
2022/08/01 00:15:44;;;;;;;15.60;14.30;;;;;;;14.45;100.00;98725.80;104944;1274;62234;-69
2022/08/01 00:18:10;;;;;;;17.60;15.80;;;;;;;14.42;100.00;98724.96;105122;1271;62177;-69
2022/08/01 00:20:36;;;;;;;17.10;15.60;;;;;;;14.40;100.00;98724.25;104964;1271;61951;-69
2022/08/01 00:23:03;;;;;;;17.00;15.40;;;;;;;14.38;100.00;98722.46;105230;1268;62095;-69
2022/08/01 00:25:29;;;;;;;16.90;15.30;;;;;;;14.35;100.00;98714.47;105245;1271;62194;-70
2022/08/01 00:27:55;;;;;;;16.50;15.10;;;;;;;14.33;100.00;98716.31;105178;1271;62171;-70
2022/08/01 00:30:21;;;;;;;17.00;15.40;;;;;;;14.30;100.00;98710.83;105240;1271;62141;-70
2022/08/01 00:32:47;;;;;;;17.30;15.90;;;;;;;14.25;100.00;98708.51;105228;1271;76001;-70
2022/08/01 00:35:13;;;;;;;18.40;16.60;;;;;;;14.21;100.00;98711.02;105202;1271;62210;-70
2022/08/01 00:37:39;;;;;;;17.70;16.00;;;;;;;14.20;100.00;98709.87;105113;1271;62218;-71
2022/08/01 00:40:06;;;;;;;18.80;17.20;;;;;;;14.17;100.00;98710.11;105227;1271;62173;-68
2022/08/01 00:42:32;;;;;;;17.90;16.10;;;;;;;14.15;100.00;98714.97;105019;1271;62343;-68
2022/08/01 00:44:58;;;;;;;16.60;15.10;;;;;;;14.12;100.00;98715.40;105246;1270;62094;-69
2022/08/01 00:47:24;;;;;;;14.80;13.50;;;;;;;14.08;100.00;98718.25;105245;1271;62097;-69
2022/08/01 00:49:50;;;;;;;14.10;12.90;;;;;;;14.02;100.00;98718.77;105200;1271;62177;-69
2022/08/01 00:52:16;;;;;;;13.80;12.60;;;;;;;13.97;100.00;98724.35;105220;1271;62277;-69
2022/08/01 00:54:43;;;;;;;15.10;13.80;;;;;;;13.92;100.00;98720.89;105235;1270;62106;-69
2022/08/01 00:57:10;;;;;;;14.70;13.40;;;;;;;13.88;100.00;98719.42;105235;1271;62552;-69
2022/08/01 00:59:36;;;;;;;14.40;13.20;;;;;;;13.83;100.00;98716.41;104990;1272;62254;-69
2022/08/01 01:02:02;;;;;;;16.20;14.60;;;;;;;13.78;100.00;98713.62;104979;1274;62255;-69
2022/08/01 01:04:29;;;;;;;16.00;14.60;;;;;;;13.75;100.00;98719.08;105226;1270;62104;-69
2022/08/01 01:07:32;;;;;;;16.30;14.80;;;;;;;13.71;100.00;98720.48;105221;1269;62178;-70
2022/08/01 01:10:07;;;;;;;16.80;15.40;;;;;;;13.67;100.00;98721.02;105278;1271;76274;-70
2022/08/01 01:12:55;;;;;;;16.50;15.00;;;;;;;13.63;100.00;98719.52;105071;1272;68744;-70
2022/08/01 01:15:40;;;;;;;17.60;15.90;;;;;;;13.59;100.00;98717.55;105354;1271;73525;-69
2022/08/01 01:18:23;;;;;;;17.80;16.20;;;;;;;13.56;100.00;98719.08;105294;1271;62167;-70
2022/08/01 01:21:17;;;;;;;18.00;15.00;;;;;;;13.53;100.00;98716.86;105230;1271;61992;-70
2022/08/01 01:23:55;;;;;;;19.30;17.40;;;;;;;13.50;100.00;98715.10;105231;1271;77010;-69
2022/08/01 01:26:31;;;;;;;21.30;19.10;;;;;;;13.50;100.00;98714.95;105230;1271;69186;-69
2022/08/01 01:29:16;;;;;;;20.00;17.90;;;;;;;13.50;100.00;98716.70;105203;1271;74284;-68
2022/08/01 01:31:51;;;;;;;19.50;17.50;;;;;;;13.49;100.00;98714.31;105218;1269;62635;-70
2022/08/01 01:34:21;;;;;;;20.70;17.70;;;;;;;13.49;100.00;98713.44;105210;1268;62076;-71
2022/08/01 01:36:49;;;;;;;20.60;18.60;;;;;;;13.48;100.00;98714.21;105230;1269;77030;-68
2022/08/01 01:39:16;;;;;;;20.80;18.90;;;;;;;13.48;100.00;98714.42;105250;1271;70950;-69
2022/08/01 01:41:45;;;;;;;21.40;19.40;;;;;;;13.47;100.00;98712.67;105266;1271;72472;-69
2022/08/01 01:44:11;;;;;;;22.30;18.60;;;;;;;13.46;100.00;98711.52;105389;1268;62181;-69
2022/08/01 01:46:39;;;;;;;20.10;18.10;;;;;;;13.45;100.00;98712.88;105056;1274;62261;-69
2022/08/01 01:49:09;;;;;;;19.40;17.40;;;;;;;13.43;100.00;98712.14;105273;1271;77027;-69
2022/08/01 01:51:38;;;;;;;18.60;16.90;;;;;;;13.40;100.00;98715.55;105286;1268;70312;-69
2022/08/01 01:54:06;;;;;;;17.30;15.70;;;;;;;13.37;100.00;98715.50;105406;1271;74206;-69
2022/08/01 01:56:48;;;;;;;18.30;16.40;;;;;;;13.33;100.00;98713.98;105216;1271;62181;-69
2022/08/01 01:59:24;;;;;;;17.80;16.10;;;;;;;13.29;100.00;98709.56;105236;1271;62209;-69
2022/08/01 02:01:55;;;;;;;17.60;16.00;;;;;;;13.25;100.00;98708.10;105253;1271;77250;-69
2022/08/01 02:04:23;;;;;;;18.30;16.60;;;;;;;13.20;100.00;98703.45;104952;1272;68738;-69
2022/08/01 02:06:51;;;;;;;17.30;15.70;;;;;;;13.16;100.00;98705.78;105215;1271;75198;-69
2022/08/01 02:09:19;;;;;;;19.80;18.00;;;;;;;13.11;100.00;98705.79;105221;1271;62263;-69
2022/08/01 02:11:48;;;;;;;19.70;17.90;;;;;;;13.08;100.00;98705.52;105270;1271;62068;-69
2022/08/01 02:14:16;;;;;;;19.70;17.80;;;;;;;13.05;100.00;98703.59;105228;1271;77314;-69
2022/08/01 02:16:48;;;;;;;18.90;17.20;;;;;;;13.02;100.00;98701.35;105403;1271;70214;-69
2022/08/01 02:19:17;;;;;;;17.60;15.90;;;;;;;12.98;100.00;98700.81;105305;1271;73625;-70
2022/08/01 02:22:00;;;;;;;17.40;15.90;;;;;;;12.92;100.00;98701.09;105224;1271;62200;-69
2022/08/01 02:24:37;;;;;;;17.00;15.40;;;;;;;12.88;100.00;98700.52;105302;1269;62052;-69
2022/08/01 02:27:09;;;;;;;17.80;16.00;;;;;;;12.85;100.00;98701.64;105218;1271;77325;-70
2022/08/01 02:29:43;;;;;;;17.40;15.80;;;;;;;12.84;100.00;98702.29;104977;1274;69290;-70
2022/08/01 02:32:20;;;;;;;16.20;14.70;;;;;;;12.83;100.00;98701.47;105221;1271;73305;-69
2022/08/01 02:34:49;;;;;;;16.80;15.20;;;;;;;12.81;100.00;98697.54;104964;1274;62270;-69
2022/08/01 02:37:17;;;;;;;16.60;15.10;;;;;;;12.79;100.00;98702.21;104970;1274;62161;-70
2022/08/01 02:39:46;;;;;;;16.70;15.10;;;;;;;12.75;100.00;98701.58;105267;1271;77071;-70
2022/08/01 02:42:15;;;;;;;14.90;13.40;;;;;;;12.71;100.00;98701.73;105287;1271;69567;-69
2022/08/01 02:44:44;;;;;;;16.20;14.70;;;;;;;12.68;100.00;98700.90;105326;1268;73427;-70
2022/08/01 02:47:10;;;;;;;15.80;14.40;;;;;;;12.66;100.00;98703.38;105063;1274;62107;-70
2022/08/01 02:49:45;;;;;;;15.20;13.80;;;;;;;12.63;100.00;98703.05;105263;1271;62021;-70
2022/08/01 02:52:15;;;;;;;15.60;14.30;;;;;;;12.61;100.00;98702.52;105428;1271;75143;-70
2022/08/01 02:54:43;;;;;;;;;;;;;;;12.59;100.00;98702.15;105281;1271;69442;-70
2022/08/01 02:57:10;;;;;;;15.10;13.70;;;;;;;12.57;100.00;98699.53;105241;1271;74733;-70
2022/08/01 02:59:39;;;;;;;14.80;13.60;;;;;;;12.54;100.00;98703.70;105002;1274;62726;-70
2022/08/01 03:02:06;;;;;;;15.90;14.50;;;;;;;12.51;100.00;98703.34;104997;1272;62107;-69
2022/08/01 03:04:34;;;;;;;14.60;13.30;;;;;;;12.49;100.00;98708.70;104948;1274;75712;-69
2022/08/01 03:07:03;;;;;;;14.20;13.00;;;;;;;12.47;100.00;98707.79;105239;1271;70299;-69
2022/08/01 03:09:32;;;;;;;14.80;13.50;;;;;;;12.45;100.00;98716.28;105196;1271;73414;-70
2022/08/01 03:12:02;;;;;;;16.40;15.00;;;;;;;12.45;100.00;98714.70;105375;1271;62056;-70
2022/08/01 03:14:30;;;;;;;16.00;14.40;;;;;;;12.45;100.00;98710.59;105288;1271;62072;-70
2022/08/01 03:17:00;;;;;;;16.30;14.70;;;;;;;12.45;100.00;98708.98;105209;1270;77275;-70
2022/08/01 03:19:28;;;;;;;16.30;14.70;;;;;;;12.45;100.00;98708.63;105372;1271;70576;-69
2022/08/01 03:21:58;;;;;;;17.00;15.40;;;;;;;12.45;100.00;98706.15;105218;1271;74374;-69
2022/08/01 03:24:25;;;;;;;;;;;;;;;12.45;100.00;98709.67;105278;1271;62079;-69
2022/08/01 03:26:54;;;;;;;14.90;13.60;;;;;;;12.46;100.00;98710.19;105007;1274;62184;-69
2022/08/01 03:29:25;;;;;;;17.00;15.40;;;;;;;12.46;100.00;98712.86;105011;1274;77210;-69
2022/08/01 03:31:52;;;;;;;16.10;14.70;;;;;;;12.47;100.00;98711.34;105245;1271;69648;-69
2022/08/01 03:34:21;;;;;;;16.40;15.00;;;;;;;12.48;100.00;98715.71;105233;1271;73850;-69
2022/08/01 03:36:54;;;;;;;15.70;14.30;;;;;;;12.50;100.00;98714.64;105250;1271;62180;-70
2022/08/01 03:39:25;;;;;;;14.80;13.40;;;;;;;12.54;100.00;98718.80;105242;1269;62078;-67
2022/08/01 03:41:55;;;;;;;15.20;13.90;;;;;;;12.75;100.00;98716.27;105362;1269;76149;-68
2022/08/01 03:44:26;;;;;;;17.30;15.90;;;;;;;13.33;100.00;98716.54;105387;1268;69234;-70
2022/08/01 03:46:58;;;;;;;15.40;14.20;;;;;;;13.92;100.00;98716.40;105384;1271;74265;-69
2022/08/01 03:49:29;;;;;;;12.60;11.50;;;;;;;14.61;100.00;98718.30;105246;1271;62090;-70
2022/08/01 03:51:58;;;;;;;10.20;9.30;;;;;;;14.78;100.00;98719.47;105262;1271;62072;-69
2022/08/01 03:54:26;;;;;;;9.90;9.20;;;;;;;15.07;100.00;98723.55;105300;1271;75083;-70
2022/08/01 03:56:52;;;;;;;10.10;9.10;;;;;;;15.83;100.00;98721.77;105269;1271;70509;-70
2022/08/01 03:59:20;;;;;;;8.30;7.70;;;;;;;16.42;100.00;98718.81;105277;1273;74146;-70
2022/08/01 04:01:47;;;;;;;9.60;7.30;;;;;;;17.00;100.00;98719.27;105419;1270;62049;-70
2022/08/01 04:04:14;;;;;;;7.40;6.80;;;;;;;17.53;100.00;98716.05;105253;1270;62053;-70
2022/08/01 04:06:41;;;;;;;6.80;6.20;;;;;;;18.05;100.00;98713.48;105223;1270;62247;-70
2022/08/01 04:09:07;;;;;;;7.20;6.10;;;;;;;18.52;100.00;98718.38;105259;1269;69102;-70
2022/08/01 04:11:34;;;;;;;7.00;6.40;;;;;;;19.01;100.00;98721.67;105334;1271;74632;-70
2022/08/01 04:14:00;;;;;;;5.80;5.30;;;;;;;19.46;100.00;98720.41;105220;1273;62065;-70
2022/08/01 04:16:26;;;;;;;6.20;5.70;;;;;;;19.94;100.00;98722.98;105247;1269;62095;-69
2022/08/01 04:18:52;;;;;;;6.50;5.90;;;;;;;20.38;100.00;98721.91;105226;1271;62258;-69
2022/08/01 04:21:22;;;;;;;8.00;6.80;;;;;;;20.78;100.00;98726.07;105264;1271;62132;-69
2022/08/01 04:23:51;;;;;;;5.80;5.40;;;;;;;21.20;100.00;98720.38;105231;1271;74620;-70
2022/08/01 04:26:19;;;;;;;6.10;5.50;;;;;;;21.58;100.00;98717.58;105256;1273;62212;-70
2022/08/01 04:28:47;;;;;;;7.10;6.50;;;;;;;21.92;100.00;98715.61;105296;1271;62076;-70
2022/08/01 04:31:15;;;;;;;7.50;6.60;;;;;;;22.21;100.00;98714.14;105290;1269;76141;-70
2022/08/01 04:33:45;;;;;;;7.40;6.70;;;;;;;22.50;100.00;98713.38;105356;1270;69304;-70
2022/08/01 04:36:14;;;;;;;7.20;6.60;;;;;;;22.60;100.00;98712.52;105222;1271;73279;-69
2022/08/01 04:38:45;;;;;;;6.00;5.50;;;;;;;22.86;100.00;98714.23;105325;1272;62073;-69
2022/08/01 04:41:13;;;;;;;5.50;5.00;;;;;;;23.09;100.00;98712.55;105273;1271;61998;-70
2022/08/01 04:43:41;;;;;;;5.30;4.80;;;;;;;23.34;100.00;98720.42;105247;1271;76943;-70
2022/08/01 04:46:08;;;;;;;5.70;4.50;;;;;;;23.51;100.00;98716.04;105261;1271;70523;-69
2022/08/01 04:48:37;;;;;;;6.00;4.20;;;;;;;23.57;100.00;98715.02;105245;1271;73612;-70
2022/08/01 04:51:04;;;;;;;7.10;4.30;;;;;;;23.85;100.00;98715.20;105234;1269;62172;-70
2022/08/01 04:53:32;;;;;;;5.30;4.90;;;;;;;24.15;100.00;98718.45;105411;1271;62173;-70
2022/08/01 04:55:58;;;;;;;4.70;4.30;;;;;;;24.38;100.00;98716.95;105216;1270;76029;-71
2022/08/01 04:58:24;;;;;;;4.80;4.40;;;;;;;24.50;100.00;98719.92;105213;1271;62267;-69
2022/08/01 05:00:50;;;;;;;4.30;3.90;;;;;;;24.55;100.00;98723.02;105246;1271;62117;-70
2022/08/01 05:03:16;;;;;;;5.90;5.40;;;;;;;24.59;100.00;98725.63;105238;1271;62162;-70
2022/08/01 05:05:42;;;;;;;4.80;4.30;;;;;;;24.68;100.00;98720.84;105216;1271;62078;-70
2022/08/01 05:08:08;;;;;;;4.90;4.50;;;;;;;24.87;100.00;98719.61;105237;1271;62079;-70
2022/08/01 05:10:34;;;;;;;4.80;4.50;;;;;;;24.98;100.00;98721.59;105207;1271;62128;-69
2022/08/01 05:13:01;;;;;;;5.30;3.90;;;;;;;25.04;100.00;98718.34;105191;1271;62229;-69
2022/08/01 05:15:27;;;;;;;4.50;4.00;;;;;;;25.10;100.00;98722.61;105193;1271;62569;-70
2022/08/01 05:17:53;;;;;;;6.20;4.30;;;;;;;25.08;100.00;98723.31;105228;1270;61698;-70
2022/08/01 05:20:19;;;;;;;4.00;3.70;;;;;;;25.09;100.00;98722.69;105215;1271;69478;-69
2022/08/01 05:22:45;;;;;;;4.30;3.90;;;;;;;25.22;100.00;98716.32;105222;1271;62181;-71
2022/08/01 05:25:11;;;;;;;5.20;4.00;;;;;;;25.32;100.00;98713.21;105222;1269;62199;-71
2022/08/01 05:27:40;;;;;;;4.50;3.70;;;;;;;25.39;100.00;98711.88;105221;1271;62503;-70
2022/08/01 05:30:07;;;;;;;4.40;3.80;;;;;;;25.58;100.00;98715.13;105231;1271;77006;-70
2022/08/01 05:32:34;;;;;;;4.00;3.70;;;;;;;25.67;100.00;98713.47;105276;1269;69139;-70
2022/08/01 05:35:00;;;;;;;4.40;3.70;;;;;;;25.70;100.00;98714.99;105238;1271;62203;-70
2022/08/01 05:37:26;;;;;;;4.20;3.60;;;;;;;25.75;100.00;98716.89;105237;1271;62196;-69
2022/08/01 05:39:52;;;;;;;3.90;3.00;;;;;;;25.86;100.00;98716.30;105256;1271;62167;-70
2022/08/01 05:42:18;;;;;;;4.30;3.20;;;;;;;25.92;100.00;98718.96;105229;1270;62048;-70
2022/08/01 05:44:44;;;;;;;5.50;3.60;;;;;;;26.02;100.00;98719.05;105281;1271;62074;-71
2022/08/01 05:47:10;;;;;;;7.20;3.60;;;;;;;26.10;100.00;98715.83;105227;1271;62492;-71
2022/08/01 05:49:36;;;;;;;5.00;3.50;;;;;;;26.20;100.00;98715.04;105320;1271;62170;-70
2022/08/01 05:52:02;;;;;;;4.50;3.50;;;;;;;26.43;100.00;98715.98;105306;1271;62192;-70
2022/08/01 05:54:28;;;;;;;3.50;3.20;;;;;;;26.63;100.00;98708.25;105322;1271;62170;-70
2022/08/01 05:56:59;;;;;;;4.30;3.60;;;;;;;26.83;100.00;98706.77;105311;1271;73812;-70
2022/08/01 05:59:25;;;;;;;4.30;3.90;;;;;;;27.14;100.00;98712.40;105306;1271;62008;-72
2022/08/01 06:01:51;;;;;;;3.40;3.00;;;;;;;27.11;100.00;98713.29;105262;1271;62420;-69
2022/08/01 06:04:17;;;;;;;4.00;3.60;;;;;;;26.99;100.00;98710.59;105224;1271;62629;-70
2022/08/01 06:06:43;;;;;;;3.50;3.20;;;;;;;26.95;100.00;98709.21;105244;1271;62075;-70
2022/08/01 06:09:09;;;;;;;3.60;3.30;;;;;;;26.94;100.00;98704.72;105262;1270;63410;-70
2022/08/01 06:11:35;;;;;;;3.30;2.80;;;;;;;27.06;100.00;98711.16;105350;1270;62187;-70
2022/08/01 06:14:01;;;;;;;5.70;3.60;;;;;;;27.07;100.00;98709.10;105423;1271;62100;-71
2022/08/01 06:16:28;;;;;;;8.10;3.70;;;;;;;27.19;100.00;98708.47;105522;1271;62075;-69
2022/08/01 06:18:53;;;;;;;4.10;3.60;;;;;;;27.37;100.00;98711.85;105235;1268;62285;-70
2022/08/01 06:21:20;;;;;;;7.30;3.60;;;;;;;27.40;100.00;98717.10;105259;1269;62145;-70
2022/08/01 06:23:46;;;;;;;3.60;3.30;;;;;;;27.26;100.00;98711.73;105254;1271;62925;-71
2022/08/01 06:26:12;;;;;;;5.30;3.40;;;;;;;27.14;100.00;98716.22;105150;1271;62229;-70
2022/08/01 06:28:38;;;;;;;5.90;4.10;;;;;;;27.00;100.00;98716.43;105234;1271;61286;-70
2022/08/01 06:31:05;;;;;;;8.50;4.00;;;;;;;27.05;100.00;98718.10;105208;1270;62135;-69
2022/08/01 06:33:30;;;;;;;7.30;4.00;;;;;;;27.05;100.00;98721.14;105265;1270;62196;-70
2022/08/01 06:35:57;;;;;;;10.90;4.50;;;;;;;27.06;100.00;98722.05;105271;1271;62282;-69
2022/08/01 06:38:24;;;;;;;7.70;4.50;;;;;;;27.01;100.00;98722.91;105236;1271;62153;-70
2022/08/01 06:40:50;;;;;;;10.20;4.50;;;;;;;26.99;100.00;98727.55;105220;1271;62177;-70
2022/08/01 06:43:16;;;;;;;9.00;4.30;;;;;;;27.01;100.00;98726.23;105247;1271;62180;-70
2022/08/01 06:45:42;;;;;;;17.60;6.60;;;;;;;26.95;100.00;98729.08;105249;1271;62234;-70
2022/08/01 06:48:08;;;;;;;9.00;4.60;;;;;;;26.84;100.00;98729.48;105248;1269;62056;-71
2022/08/01 06:50:35;;;;;;;8.60;4.50;;;;;;;26.71;100.00;98730.86;105271;1271;62662;-70
2022/08/01 06:53:01;;;;;;;7.20;3.70;;;;;;;26.80;100.00;98733.58;105201;1271;74348;-69
2022/08/01 06:55:28;;;;;;;7.00;4.10;;;;;;;26.73;100.00;98736.06;105244;1271;62184;-69
2022/08/01 06:57:54;;;;;;;8.90;3.70;;;;;;;26.59;100.00;98734.23;105227;1268;62164;-70
2022/08/01 07:00:22;;;;;;;3.40;3.00;;;;;;;26.73;100.00;98731.27;105236;1271;62290;-70
2022/08/01 07:02:49;;;;;;;6.30;2.90;;;;;;;26.68;100.00;98730.66;105254;1271;70376;-70
2022/08/01 07:05:16;;;;;;;5.10;3.30;;;;;;;26.54;100.00;98733.54;105234;1271;74441;-70
2022/08/01 07:07:42;;;;;;;4.30;2.90;;;;;;;26.53;100.00;98735.19;105204;1269;62499;-70
2022/08/01 07:10:08;;;;;;;3.20;2.80;;;;;;;26.55;100.00;98740.46;105255;1271;62541;-69
2022/08/01 07:12:37;;;;;;;4.40;2.70;;;;;;;26.61;100.00;98733.56;105144;1271;62191;-70
2022/08/01 07:15:06;;;;;;;4.70;2.50;;;;;;;26.70;100.00;98729.05;105250;1271;70373;-69
2022/08/01 07:17:32;;;;;;;3.70;3.00;;;;;;;26.92;100.00;98719.79;105207;1271;73261;-69
2022/08/01 07:19:58;;;;;;;3.60;3.00;;;;;;;26.90;100.00;98721.14;105241;1268;62207;-69
2022/08/01 07:22:24;;;;;;;2.90;2.60;;;;;;;26.71;100.00;98721.85;105197;1271;62225;-70
2022/08/01 07:24:50;;;;;;;3.00;2.60;;;;;;;26.49;100.00;98724.05;105236;1271;62003;-70
2022/08/01 07:27:16;;;;;;;3.90;2.20;;;;;;;26.30;100.00;98724.02;105261;1271;62164;-72
2022/08/01 07:29:42;;;;;;;3.40;2.70;;;;;;;26.02;100.00;98720.90;105275;1271;62145;-71
2022/08/01 07:32:08;;;;;;;3.40;2.50;;;;;;;25.74;100.00;98720.45;105287;1271;62187;-71
2022/08/01 07:34:34;;;;;;;2.80;2.50;;;;;;;25.69;100.00;98719.70;105238;1270;62075;-70
2022/08/01 07:37:00;;;;;;;4.40;2.60;;;;;;;25.56;100.00;98720.19;105083;1272;62292;-71
2022/08/01 07:39:26;;;;;;;4.40;2.60;;;;;;;25.48;100.00;98718.76;105049;1274;72236;-70
2022/08/01 07:41:52;;;;;;;2.70;2.50;;;;;;;25.28;100.00;98720.66;105302;1270;62145;-71
2022/08/01 07:44:18;;;;;;;2.80;2.20;;;;;;;25.12;100.00;98721.20;105325;1271;62085;-70
2022/08/01 07:46:44;;;;;;;3.30;2.50;;;;;;;24.96;100.00;98723.42;105296;1270;62180;-69
2022/08/01 07:49:10;;;;;;;4.80;2.60;;;;;;;24.68;100.00;98721.20;105229;1271;62091;-70
2022/08/01 07:51:37;;;;;;;3.10;2.30;;;;;;;24.52;100.00;98721.48;105221;1271;62100;-70
2022/08/01 07:54:03;;;;;;;10.90;3.80;;;;;;;24.53;100.00;98719.88;105225;1271;62218;-70
2022/08/01 07:56:29;;;;;;;3.40;2.60;;;;;;;24.48;100.00;98719.97;105246;1270;62081;-69
2022/08/01 07:58:55;;;;;;;2.80;2.60;;;;;;;24.41;100.00;98719.52;105228;1269;62167;-69
2022/08/01 08:01:21;;;;;;;3.50;2.30;;;;;;;24.54;100.00;98718.68;105243;1270;62150;-69
2022/08/01 08:03:47;;;;;;;5.10;2.70;;;;;;;24.67;100.00;98717.19;105272;1270;62209;-69
2022/08/01 08:06:14;;;;;;;5.60;2.70;;;;;;;24.81;100.00;98711.30;105252;1271;62108;-69
2022/08/01 08:08:39;;;;;;;4.70;2.90;;;;;;;24.90;100.00;98710.56;105240;1271;62241;-70
2022/08/01 08:11:06;;;;;;;2.90;2.60;;;;;;;24.95;100.00;98708.15;105205;1271;62306;-70
2022/08/01 08:13:32;;;;;;;4.50;2.60;;;;;;;24.96;100.00;98710.21;105288;1271;61991;-69
2022/08/01 08:15:59;;;;;;;3.20;2.70;;;;;;;25.07;100.00;98707.91;105231;1271;62104;-69
2022/08/01 08:18:25;;;;;;;2.90;2.50;;;;;;;25.10;100.00;98704.77;104953;1271;62276;-69
2022/08/01 08:20:52;;;;;;;5.40;3.00;;;;;;;25.05;100.00;98707.99;105254;1271;62074;-69
2022/08/01 08:26:02;;;;;;;4.80;2.60;;;;;;;25.24;100.00;98709.86;104941;1271;71587;-70
2022/08/01 08:28:28;;;;;;;4.60;2.60;;;;;;;25.38;100.00;98712.17;105204;1270;62703;-70
2022/08/01 08:30:54;;;;;;;3.10;2.80;;;;;;;25.54;100.00;98713.94;105249;1271;62076;-69
2022/08/01 08:33:21;;;;;;;4.10;2.60;;;;;;;25.70;100.00;98711.13;105250;1271;62071;-70
2022/08/01 08:35:47;;;;;;;2.70;2.40;;;;;;;25.86;100.00;98713.44;105214;1271;62085;-70
2022/08/01 08:38:12;;;;;;;3.60;2.30;;;;;;;26.09;100.00;98711.80;105239;1271;62165;-70
2022/08/01 08:40:39;;;;;;;4.60;2.60;;;;;;;26.35;100.00;98711.91;105236;1271;62136;-70
2022/08/01 08:43:05;;;;;;;3.20;2.50;;;;;;;26.50;100.00;98714.93;105255;1270;62132;-70
2022/08/01 08:45:32;;;;;;;2.90;2.50;;;;;;;26.65;100.00;98710.27;105277;1271;62158;-70
2022/08/01 08:47:59;;;;;;;5.40;2.10;;;;;;;26.87;100.00;98712.69;105344;1270;62132;-70
2022/08/01 08:50:26;;;;;;;3.10;2.40;;;;;;;27.20;100.00;98714.19;105222;1269;62175;-70
2022/08/01 08:52:56;;;;;;;3.40;2.30;;;;;;;27.55;100.00;98713.52;105248;1271;62199;-70
2022/08/01 08:55:24;;;;;;;3.60;2.80;;;;;;;27.75;100.00;98712.93;105268;1271;62025;-70
2022/08/01 08:57:50;;;;;;;3.90;2.60;;;;;;;27.68;100.00;98717.77;105021;1271;75695;-70
2022/08/01 09:00:16;;;;;;;2.90;2.70;;;;;;;27.66;100.00;98715.27;105234;1270;70640;-71
2022/08/01 09:02:46;;;;;;;6.20;3.00;;;;;;;27.62;100.00;98717.99;105233;1271;62100;-69
2022/08/01 09:05:13;;;;;;;2.80;2.60;;;;;;;27.75;100.00;98717.72;105288;1271;62167;-69
2022/08/01 09:07:39;;;;;;;4.90;2.60;;;;;;;27.87;100.00;98718.29;105370;1269;62153;-69
2022/08/01 09:10:08;;;;;;;3.30;2.10;;;;;;;27.93;100.00;98715.80;105148;1271;62250;-69
2022/08/01 09:12:36;;;;;;;;;;;;;;;28.00;100.00;98719.20;105307;1271;69313;-70
2022/08/01 09:15:03;;;;;;;4.40;2.40;;;;;;;28.08;100.00;98720.58;105260;1271;73211;-70
2022/08/01 09:17:42;;;;;;;2.80;2.40;;;;;;;28.09;100.00;98721.08;105234;1271;62021;-69
2022/08/01 09:20:23;;;;;;;4.80;2.40;;;;;;;28.15;100.00;98720.69;105038;1271;62228;-70
2022/08/01 09:22:49;;;;;;;2.10;1.90;;;;;;;28.10;100.00;98721.66;105233;1269;76268;-70
2022/08/01 09:25:15;;;;;;;2.10;2.00;;;;;;;27.81;100.00;98728.64;105326;1271;69281;-70
2022/08/01 09:27:41;;;;;;;3.00;1.90;;;;;;;27.76;100.00;98728.83;104887;1271;62177;-70
2022/08/01 09:30:15;;;;;;;2.40;2.00;;;;;;;27.97;100.00;98725.91;105247;1271;62174;-71
2022/08/01 09:33:00;;;;;;;2.40;1.70;;;;;;;28.22;100.00;98727.38;105234;1271;62157;-70
2022/08/01 09:35:36;;;;;;;1.90;1.70;;;;;;;28.35;100.00;98729.77;105247;1271;76125;-70
2022/08/01 09:38:20;;;;;;;3.50;1.80;;;;;;;28.31;100.00;98728.99;105261;1271;66639;-70
2022/08/01 09:40:48;;;;;;;2.20;2.00;;;;;;;28.22;100.00;98730.66;105310;1271;73529;-70
2022/08/01 09:43:14;;;;;;;2.40;2.10;;;;;;;28.10;100.00;98734.13;105259;1271;62151;-70
2022/08/01 09:45:40;;;;;;;3.10;2.70;;;;;;;27.96;100.00;98737.56;104636;1271;430411;-70
2022/08/01 09:48:08;;;;;;;3.40;2.30;;;;;;;27.83;100.00;98735.02;105087;1271;62107;-70
2022/08/01 09:50:50;;;;;;;4.10;2.30;;;;;;;27.67;100.00;98738.39;105443;1270;69393;-71
2022/08/01 09:53:17;;;;;;;2.70;2.40;;;;;;;27.67;100.00;98738.60;105266;1268;73393;-69
2022/08/01 09:55:44;;;;;;;2.50;2.30;;;;;;;27.66;100.00;98739.99;105450;1271;62158;-70
2022/08/01 09:58:11;;;;;;;2.30;2.10;;;;;;;27.73;100.00;98739.91;105037;1272;62199;-70
2022/08/01 10:00:39;;;;;;;4.60;2.60;;;;;;;27.71;100.00;98738.48;105564;1271;75831;-69
2022/08/01 10:03:23;;;;;;;5.10;2.40;;;;;;;27.71;100.00;98741.90;105300;1271;69140;-69
2022/08/01 10:05:51;;;;;;;3.40;2.30;;;;;;;27.81;100.00;98739.85;105391;1271;72660;-68
2022/08/01 10:08:18;;;;;;;3.00;2.20;;;;;;;27.87;100.00;98737.46;105235;1271;62216;-70
2022/08/01 10:11:07;;;;;;;3.20;2.50;;;;;;;27.92;100.00;98740.11;105266;1271;62271;-70
2022/08/01 10:13:33;;;;;;;2.30;2.10;;;;;;;28.11;100.00;98738.85;105248;1270;77149;-69
2022/08/01 10:16:01;;;;;;;2.40;2.20;;;;;;;28.24;100.00;98738.41;105292;1271;62152;-69
2022/08/01 10:18:32;;;;;;;4.40;2.10;;;;;;;28.28;100.00;98742.13;105234;1271;74635;-69
2022/08/01 10:21:03;;;;;;;2.50;2.30;;;;;;;28.45;100.00;98743.02;104940;1271;62062;-69
2022/08/01 10:23:37;;;;;;;3.30;2.40;;;;;;;28.61;100.00;98736.08;105263;1270;62151;-69
2022/08/01 10:26:05;;;;;;;2.80;2.60;;;;;;;28.73;100.00;98738.46;105294;1271;77178;-70
2022/08/01 10:28:35;;;;;;;3.80;2.50;;;;;;;28.72;100.00;98739.15;105263;1271;69325;-69
2022/08/01 10:31:02;;;;;;;3.30;3.00;;;;;;;28.71;100.00;98739.88;105273;1268;74974;-70
2022/08/01 10:33:29;;;;;;;3.70;2.90;;;;;;;28.71;100.00;98734.83;105245;1271;62116;-70
2022/08/01 10:35:56;;;;;;;2.90;2.70;;;;;;;28.73;100.00;98739.73;105372;1271;61994;-70
2022/08/01 10:38:23;;;;;;;3.00;2.80;;;;;;;28.76;100.00;98737.90;105312;1271;77085;-70
2022/08/01 10:40:49;;;;;;;3.70;3.10;;;;;;;28.76;100.00;98739.10;105247;1271;70287;-70
2022/08/01 10:43:17;;;;;;;3.30;3.00;;;;;;;28.53;100.00;98736.96;105257;1269;73297;-71
2022/08/01 10:45:43;;;;;;;3.50;3.10;;;;;;;28.34;100.00;98739.27;105273;1268;62643;-70
2022/08/01 10:48:15;;;;;;;3.80;3.40;;;;;;;28.25;97.37;98737.73;104952;1268;62120;-70
2022/08/01 10:50:45;;;;;;;3.10;2.90;;;;;;;28.07;93.64;98737.27;105272;1268;76148;-70
2022/08/01 10:53:19;;;;;;;4.20;3.60;;;;;;;28.12;94.06;98735.59;105360;1268;70733;-68
2022/08/01 10:55:52;;;;;;;3.60;3.40;;;;;;;28.27;94.62;98732.91;105272;1270;73221;-70
2022/08/01 10:58:24;;;;;;;5.00;3.60;;;;;;;28.25;92.89;98736.33;105263;1271;62152;-70
2022/08/01 11:01:15;;;;;;;4.30;3.80;;;;;;;28.20;93.77;98730.81;105371;1267;62426;-70
2022/08/01 11:04:04;;;;;;;4.10;3.60;;;;;;;28.22;94.83;98728.80;104993;1271;76464;-70
2022/08/01 11:06:34;;;;;;;4.50;4.20;;;;;;;28.26;93.67;98731.95;105018;1271;70251;-70
2022/08/01 11:09:05;;;;;;;4.20;3.80;;;;;;;28.13;94.05;98730.88;105425;1268;74512;-70
2022/08/01 11:11:30;;;;;;;4.80;4.40;;;;;;;28.15;95.17;98731.61;105342;1268;62079;-70
2022/08/01 11:13:57;;;;;;;5.20;4.40;;;;;;;28.21;93.91;98736.16;105296;1268;62177;-69
2022/08/01 11:16:32;;;;;;;4.40;3.90;;;;;;;28.02;93.60;98732.67;105288;1268;62075;-71
2022/08/01 11:18:58;;;;;;;4.20;3.90;;;;;;;27.94;93.38;98731.35;105302;1268;69196;-71
2022/08/01 11:22:20;;;;;;;4.60;4.10;;;;;;;27.89;94.82;98729.06;105255;1268;61993;-72